Time;durP1;ratioP1;P1;durP2;ratioP2;P2;SDS_P1;SDS_P2;PMS_P1;PMS_P2;Temp;Humidity;BMP_temperature;BMP_pressure;BME280_temperature;BME280_humidity;BME280_pressure;Samples;Min_cycle;Max_cycle;Signal;HPM_P1;HPM_P2
2021/12/02 00:04:15;;;;;;;4.87;1.63;;;7.20;99.90;;;;;;10354124;28;20283;-70
2021/12/02 00:09:16;;;;;;;3.07;1.40;;;7.20;99.90;;;;;;10356947;28;20262;-70
2021/12/02 00:14:23;;;;;;;3.77;1.80;;;7.20;99.90;;;;;;10373599;28;20205;-70
2021/12/02 00:24:59;;;;;;;4.90;2.10;;;7.20;99.90;;;;;;10355432;28;20257;-70
2021/12/02 00:30:00;;;;;;;3.00;1.87;;;7.10;99.90;;;;;;10346553;28;20275;-70
2021/12/02 00:35:01;;;;;;;3.17;1.60;;;7.10;99.90;;;;;;10361172;28;20574;-70
2021/12/02 00:40:02;;;;;;;3.30;1.63;;;7.10;99.90;;;;;;10357473;28;20418;-71
2021/12/02 00:45:03;;;;;;;2.03;1.60;;;7.00;99.90;;;;;;10355934;28;20226;-71
2021/12/02 00:50:05;;;;;;;3.63;1.97;;;7.00;99.90;;;;;;10352799;28;20226;-71
2021/12/02 00:55:06;;;;;;;5.37;2.57;;;7.00;99.90;;;;;;10377445;28;20182;-70
2021/12/02 01:00:08;;;;;;;3.67;1.57;;;7.00;99.90;;;;;;10359653;28;20554;-70
2021/12/02 01:05:08;;;;;;;3.20;1.93;;;6.90;99.90;;;;;;10365461;28;20185;-70
2021/12/02 01:10:09;;;;;;;3.67;1.90;;;6.80;99.90;;;;;;10357885;28;20222;-70
2021/12/02 01:15:10;;;;;;;3.03;2.20;;;6.90;99.90;;;;;;10360280;28;20243;-70
2021/12/02 01:20:10;;;;;;;4.07;1.93;;;6.90;99.90;;;;;;10362676;28;20221;-70
2021/12/02 01:25:12;;;;;;;4.53;2.20;;;6.90;99.90;;;;;;10360949;28;20769;-69
2021/12/02 01:30:13;;;;;;;6.13;1.80;;;6.90;99.90;;;;;;10351563;28;20221;-70
2021/12/02 01:35:18;;;;;;;4.63;2.10;;;6.90;99.90;;;;;;10366730;28;20235;-71
2021/12/02 01:40:19;;;;;;;4.80;1.93;;;6.90;99.90;;;;;;10358197;28;20190;-70
2021/12/02 01:45:29;;;;;;;4.10;2.27;;;6.90;99.90;;;;;;10357228;28;20251;-70
2021/12/02 01:50:34;;;;;;;3.47;2.00;;;6.90;99.90;;;;;;10349869;28;20228;-70
2021/12/02 01:55:41;;;;;;;3.33;1.60;;;6.90;99.90;;;;;;10374346;28;20720;-70
2021/12/02 02:00:44;;;;;;;5.63;2.23;;;6.90;99.90;;;;;;10372004;28;20217;-70
2021/12/02 02:05:52;;;;;;;6.03;2.47;;;6.90;99.90;;;;;;10359282;28;20224;-71
2021/12/02 02:10:56;;;;;;;6.00;2.10;;;6.90;99.90;;;;;;10348518;28;20292;-71
2021/12/02 02:15:56;;;;;;;3.07;1.43;;;6.90;99.90;;;;;;10358995;28;20247;-71
2021/12/02 02:21:08;;;;;;;3.77;1.70;;;6.90;99.90;;;;;;10361556;28;20226;-71
2021/12/02 02:26:11;;;;;;;2.87;1.63;;;6.80;99.90;;;;;;10367635;28;20352;-70
2021/12/02 02:31:12;;;;;;;2.97;1.90;;;6.80;99.90;;;;;;10356921;28;20241;-70
2021/12/02 02:36:13;;;;;;;2.73;1.37;;;6.70;99.90;;;;;;10364066;28;20225;-70
2021/12/02 02:41:19;;;;;;;3.60;1.60;;;6.70;99.90;;;;;;10362433;28;20221;-70
2021/12/02 02:46:31;;;;;;;2.47;1.40;;;6.60;99.90;;;;;;10373822;28;20228;-71
2021/12/02 02:51:34;;;;;;;4.27;1.60;;;6.50;99.90;;;;;;10366225;28;20234;-70
2021/12/02 02:56:41;;;;;;;3.63;1.27;;;6.50;99.90;;;;;;10365608;28;20220;-70
2021/12/02 03:07:23;;;;;;;2.67;0.93;;;6.40;99.90;;;;;;10368479;28;20222;-71
2021/12/02 03:17:25;;;;;;;3.83;1.17;;;6.40;99.90;;;;;;10371018;28;20217;-71
2021/12/02 03:22:26;;;;;;;3.07;1.20;;;6.30;99.90;;;;;;10381480;28;20233;-71
2021/12/02 03:27:27;;;;;;;5.43;1.27;;;6.30;99.90;;;;;;10362586;28;20284;-70
2021/12/02 03:32:27;;;;;;;4.53;1.10;;;6.30;99.90;;;;;;10363557;28;20287;-70
2021/12/02 03:37:28;;;;;;;1.33;0.50;;;6.30;99.90;;;;;;10361741;28;20222;-70
2021/12/02 03:42:29;;;;;;;4.17;1.00;;;6.30;99.90;;;;;;10364792;28;20259;-70
2021/12/02 03:47:29;;;;;;;3.50;0.97;;;6.30;99.90;;;;;;10370762;28;20225;-70
2021/12/02 03:52:30;;;;;;;6.40;1.27;;;6.20;99.90;;;;;;10365268;28;20295;-70
2021/12/02 03:57:32;;;;;;;2.37;0.87;;;6.10;99.90;;;;;;10359753;28;20268;-70
2021/12/02 04:02:32;;;;;;;4.57;1.33;;;6.10;99.90;;;;;;10359096;28;20653;-71
2021/12/02 04:07:33;;;;;;;5.10;1.37;;;6.00;99.90;;;;;;10356022;28;20312;-72
2021/12/02 04:13:04;;;;;;;3.70;1.00;;;6.00;99.90;;;;;;10360622;28;20232;-70
2021/12/02 04:17:57;;;;;;;2.53;0.80;;;6.00;99.90;;;;;;10350450;28;20301;-69
2021/12/02 04:22:58;;;;;;;1.90;1.17;;;5.90;99.90;;;;;;10360529;28;20229;-70
2021/12/02 04:28:02;;;;;;;5.27;1.10;;;5.90;99.90;;;;;;10358640;28;20301;-70
2021/12/02 04:33:05;;;;;;;3.77;0.93;;;5.90;99.90;;;;;;10354274;28;20266;-70
2021/12/02 04:38:09;;;;;;;5.73;1.00;;;5.90;99.90;;;;;;10336643;28;20214;-70
2021/12/02 04:43:09;;;;;;;5.70;1.13;;;5.80;99.90;;;;;;10350666;28;20240;-69
2021/12/02 04:48:10;;;;;;;3.10;1.20;;;5.80;99.90;;;;;;10364362;28;20236;-69
2021/12/02 04:53:11;;;;;;;6.83;1.40;;;5.70;99.90;;;;;;10361914;28;20240;-71
2021/12/02 04:58:12;;;;;;;4.60;1.27;;;5.80;99.90;;;;;;10368478;28;20228;-71
2021/12/02 05:03:12;;;;;;;3.33;1.10;;;5.70;99.90;;;;;;10365064;28;20225;-71
2021/12/02 05:08:13;;;;;;;3.70;0.90;;;5.70;99.90;;;;;;10356118;28;20228;-70
2021/12/02 05:13:13;;;;;;;2.63;0.87;;;5.80;99.90;;;;;;10358627;28;20232;-71
2021/12/02 05:18:14;;;;;;;3.50;0.90;;;5.70;99.90;;;;;;10360837;28;20213;-71
2021/12/02 05:23:15;;;;;;;3.80;1.30;;;5.70;99.90;;;;;;10375454;28;20732;-71
2021/12/02 05:28:17;;;;;;;3.87;1.27;;;5.70;99.90;;;;;;10351484;28;20267;-70
2021/12/02 05:33:18;;;;;;;4.33;0.90;;;5.70;99.90;;;;;;10357181;28;20240;-71
2021/12/02 05:38:19;;;;;;;4.07;1.20;;;5.60;99.90;;;;;;10366426;28;20212;-70
2021/12/02 05:43:19;;;;;;;4.27;1.30;;;5.60;99.90;;;;;;10357422;28;20257;-70
2021/12/02 05:48:20;;;;;;;2.73;1.03;;;5.60;99.90;;;;;;10373576;28;20388;-70
2021/12/02 05:53:20;;;;;;;3.87;1.03;;;5.50;99.90;;;;;;10365699;28;20247;-71
2021/12/02 05:58:21;;;;;;;7.40;1.50;;;5.60;99.90;;;;;;10355503;28;20217;-71
2021/12/02 06:03:22;;;;;;;3.10;1.00;;;5.60;99.90;;;;;;10363707;28;20217;-72
2021/12/02 06:08:22;;;;;;;6.20;1.27;;;5.60;99.90;;;;;;10356738;28;20225;-71
2021/12/02 06:13:24;;;;;;;3.30;1.07;;;5.60;99.90;;;;;;10365246;28;20220;-71
2021/12/02 06:18:28;;;;;;;3.30;0.90;;;5.60;99.90;;;;;;10363705;28;20313;-71
2021/12/02 06:23:29;;;;;;;4.23;1.10;;;5.50;99.90;;;;;;10364173;28;20232;-71
2021/12/02 06:28:30;;;;;;;4.80;1.53;;;5.50;99.90;;;;;;10365708;28;20231;-71
2021/12/02 06:33:30;;;;;;;3.90;1.20;;;5.50;99.90;;;;;;10368535;28;20259;-71
2021/12/02 06:38:31;;;;;;;7.07;1.80;;;5.50;99.90;;;;;;10371684;28;20252;-71
2021/12/02 06:43:31;;;;;;;5.53;1.93;;;5.50;99.90;;;;;;10362157;28;20596;-71
2021/12/02 06:48:32;;;;;;;4.57;1.57;;;5.50;99.90;;;;;;10366222;28;20676;-71
2021/12/02 06:53:33;;;;;;;4.70;1.40;;;5.50;99.90;;;;;;10337285;28;20712;-69
2021/12/02 06:58:33;;;;;;;4.83;1.43;;;5.60;99.90;;;;;;10355535;28;20221;-70
2021/12/02 07:03:34;;;;;;;4.93;1.60;;;5.60;99.90;;;;;;10361334;28;20333;-70
2021/12/02 07:08:35;;;;;;;4.50;1.50;;;5.60;99.90;;;;;;10369680;28;20232;-71
2021/12/02 07:13:37;;;;;;;3.80;1.23;;;5.60;99.90;;;;;;10363465;28;20213;-72
2021/12/02 07:18:42;;;;;;;5.17;1.90;;;5.60;99.90;;;;;;10375533;28;20538;-72
2021/12/02 07:23:43;;;;;;;2.33;0.90;;;5.60;99.90;;;;;;10360527;28;20751;-73
2021/12/02 07:28:47;;;;;;;4.17;1.13;;;5.60;99.90;;;;;;10347122;28;20369;-72
2021/12/02 07:33:52;;;;;;;4.27;1.30;;;5.60;99.90;;;;;;10331533;28;20230;-72
2021/12/02 07:38:54;;;;;;;4.70;1.50;;;5.60;99.90;;;;;;10335198;28;20214;-71
2021/12/02 07:43:55;;;;;;;2.27;1.23;;;5.60;99.90;;;;;;10346493;28;20260;-70
2021/12/02 07:48:55;;;;;;;5.30;1.30;;;5.70;99.90;;;;;;10350235;28;20240;-70
2021/12/02 07:54:01;;;;;;;2.97;1.10;;;5.70;99.90;;;;;;10380256;28;20228;-71
2021/12/02 07:59:02;;;;;;;3.50;1.23;;;5.70;99.90;;;;;;10355524;28;20221;-70
2021/12/02 08:04:03;;;;;;;5.80;1.83;;;5.70;99.90;;;;;;10361614;28;20213;-69
2021/12/02 08:09:05;;;;;;;5.27;1.50;;;5.80;99.90;;;;;;10370243;28;20220;-70
2021/12/02 08:14:13;;;;;;;2.37;1.37;;;5.80;99.90;;;;;;10359907;28;20868;-69
2021/12/02 08:19:13;;;;;;;4.03;1.50;;;5.90;99.90;;;;;;10322786;28;20218;-71
2021/12/02 08:24:14;;;;;;;4.50;1.50;;;5.90;99.90;;;;;;10354301;28;20331;-71
2021/12/02 08:29:16;;;;;;;9.27;2.30;;;5.90;99.90;;;;;;10360078;28;20668;-70
2021/12/02 08:34:17;;;;;;;8.03;1.60;;;5.90;99.90;;;;;;10321317;28;20614;-70
2021/12/02 08:39:23;;;;;;;4.03;1.50;;;6.00;99.90;;;;;;10364068;28;20896;-70
2021/12/02 08:44:25;;;;;;;8.10;2.27;;;6.00;99.90;;;;;;10347110;28;20292;-71
2021/12/02 08:49:26;;;;;;;3.00;1.47;;;6.10;99.90;;;;;;10351985;28;20226;-72
2021/12/02 08:54:27;;;;;;;7.37;1.60;;;6.10;99.90;;;;;;10355387;28;20221;-73
2021/12/02 08:59:28;;;;;;;5.30;1.77;;;6.10;99.90;;;;;;10348704;28;20218;-72
2021/12/02 09:04:29;;;;;;;4.70;1.67;;;6.10;99.90;;;;;;10356396;28;20226;-71
2021/12/02 09:09:30;;;;;;;4.70;1.80;;;6.20;99.90;;;;;;10343061;28;20228;-73
2021/12/02 09:14:31;;;;;;;2.57;1.13;;;6.30;99.90;;;;;;10356416;28;20686;-73
2021/12/02 09:19:32;;;;;;;2.77;1.10;;;6.40;99.90;;;;;;10362842;28;20645;-73
2021/12/02 09:24:33;;;;;;;2.40;1.20;;;6.50;99.90;;;;;;10364343;28;20308;-72
2021/12/02 09:29:33;;;;;;;2.83;1.20;;;6.60;99.90;;;;;;10363139;28;20223;-72
2021/12/02 09:34:34;;;;;;;0.80;0.80;;;6.80;99.90;;;;;;10357723;28;20228;-72
2021/12/02 09:39:35;;;;;;;2.20;0.90;;;7.40;99.90;;;;;;10357009;28;20229;-74
2021/12/02 09:44:40;;;;;;;0.80;0.80;;;8.20;99.90;;;;;;10343592;28;20231;-72
2021/12/02 09:49:41;;;;;;;2.40;1.03;;;8.60;99.90;;;;;;10349241;28;20226;-73
2021/12/02 09:54:53;;;;;;;2.37;0.93;;;8.50;99.90;;;;;;10356315;28;20211;-72
2021/12/02 09:59:55;;;;;;;2.77;1.13;;;8.50;99.90;;;;;;10359702;28;20214;-72
2021/12/02 10:05:03;;;;;;;2.77;1.00;;;8.50;99.90;;;;;;10364875;28;20227;-72
2021/12/02 10:15:13;;;;;;;1.43;0.80;;;8.20;99.90;;;;;;10347402;28;20245;-74
2021/12/02 10:25:35;;;;;;;2.97;0.77;;;8.00;99.90;;;;;;10356255;28;20218;-69
2021/12/02 10:30:41;;;;;;;1.40;0.80;;;7.90;99.90;;;;;;10361306;28;20325;-69
2021/12/02 10:35:45;;;;;;;1.13;0.87;;;8.00;99.90;;;;;;10354418;28;20237;-69
2021/12/02 10:40:58;;;;;;;3.17;1.00;;;8.10;99.90;;;;;;10353109;28;20234;-69
2021/12/02 10:46:18;;;;;;;2.10;0.80;;;8.30;99.90;;;;;;10357658;28;20285;-72
2021/12/02 10:51:50;;;;;;;2.60;0.90;;;8.30;99.90;;;;;;10352736;28;20266;-72
2021/12/02 10:56:54;;;;;;;1.23;0.67;;;8.20;99.90;;;;;;10357352;28;20273;-73
2021/12/02 11:02:02;;;;;;;4.00;1.00;;;8.10;99.90;;;;;;10357277;28;20246;-71
2021/12/02 11:07:05;;;;;;;2.97;1.07;;;7.90;99.90;;;;;;10357102;28;20697;-71
2021/12/02 11:12:08;;;;;;;1.47;0.80;;;7.60;99.90;;;;;;10361069;28;20292;-72
2021/12/02 11:17:13;;;;;;;1.13;0.60;;;7.40;99.90;;;;;;10379031;28;20649;-72
2021/12/02 11:22:17;;;;;;;2.90;0.80;;;7.20;99.90;;;;;;10362545;28;20221;-72
2021/12/02 11:27:24;;;;;;;7.47;3.63;;;7.00;99.90;;;;;;10363409;28;20213;-71
2021/12/02 11:32:28;;;;;;;1.97;1.10;;;7.30;99.90;;;;;;10381760;28;20316;-72
2021/12/02 11:37:31;;;;;;;1.50;0.83;;;7.70;99.90;;;;;;10366558;28;20885;-71
2021/12/02 11:42:32;;;;;;;1.67;0.87;;;7.70;99.90;;;;;;10368749;28;20499;-73
2021/12/02 11:47:34;;;;;;;2.47;1.00;;;7.40;99.90;;;;;;10372372;28;20303;-73
2021/12/02 11:52:37;;;;;;;1.47;0.80;;;7.10;99.90;;;;;;10371126;28;20225;-74
2021/12/02 11:57:38;;;;;;;3.37;1.10;;;6.90;99.90;;;;;;10360526;28;20864;-73
2021/12/02 12:02:47;;;;;;;2.40;1.00;;;6.70;99.90;;;;;;10365267;28;20217;-73
2021/12/02 12:07:48;;;;;;;1.37;0.90;;;6.50;99.90;;;;;;10373989;28;20226;-72
2021/12/02 12:12:51;;;;;;;2.87;0.90;;;6.40;99.90;;;;;;10362583;28;20605;-73
2021/12/02 12:17:52;;;;;;;1.40;1.17;;;6.50;99.90;;;;;;10365494;28;20225;-70
2021/12/02 12:22:53;;;;;;;1.83;0.80;;;6.60;99.90;;;;;;10349747;28;20226;-72
2021/12/02 12:27:58;;;;;;;0.60;0.60;;;6.70;99.90;;;;;;10351170;28;20217;-71
2021/12/02 12:33:05;;;;;;;2.43;0.80;;;6.80;99.90;;;;;;10344104;28;20240;-71
2021/12/02 12:38:29;;;;;;;0.63;0.50;;;7.20;99.90;;;;;;10346321;28;20217;-71
2021/12/02 12:43:36;;;;;;;2.40;1.10;;;7.60;99.90;;;;;;10369292;28;20228;-71
2021/12/02 12:48:37;;;;;;;1.80;0.80;;;7.80;99.90;;;;;;10362045;28;20205;-73
2021/12/02 12:53:40;;;;;;;1.20;0.67;;;7.60;99.90;;;;;;10333463;28;20206;-73
2021/12/02 12:58:53;;;;;;;2.23;0.80;;;7.50;99.90;;;;;;10357367;28;20213;-73
2021/12/02 13:04:16;;;;;;;2.27;0.87;;;7.30;99.90;;;;;;10349501;28;20301;-73
2021/12/02 13:09:58;;;;;;;1.53;0.57;;;7.40;99.90;;;;;;10353088;28;20222;-73
2021/12/02 13:15:03;;;;;;;0.87;0.80;;;7.30;99.90;;;;;;10349911;28;20229;-73
2021/12/02 13:20:19;;;;;;;2.50;0.80;;;6.70;99.90;;;;;;10326690;28;20433;-70
2021/12/02 13:25:24;;;;;;;1.47;1.20;;;6.30;99.90;;;;;;10356146;28;20187;-72
2021/12/02 13:30:27;;;;;;;1.67;1.10;;;6.20;99.90;;;;;;10349482;28;21087;-73
2021/12/02 13:35:27;;;;;;;1.03;0.90;;;6.20;99.90;;;;;;10355033;28;20220;-72
2021/12/02 13:40:40;;;;;;;3.20;1.27;;;6.20;99.90;;;;;;10349646;28;20727;-72
2021/12/02 13:45:42;;;;;;;2.87;1.10;;;6.40;99.90;;;;;;10348016;28;20229;-73
2021/12/02 13:50:47;;;;;;;1.60;1.50;;;6.60;99.90;;;;;;10352033;28;20794;-71
2021/12/02 13:55:53;;;;;;;1.50;1.40;;;6.70;99.90;;;;;;10359412;28;20239;-72
2021/12/02 14:00:54;;;;;;;1.50;1.40;;;6.50;99.90;;;;;;10362877;28;20876;-72
2021/12/02 14:05:58;;;;;;;2.83;1.90;;;6.30;99.90;;;;;;10363277;28;20688;-73
2021/12/02 14:10:59;;;;;;;2.37;1.50;;;6.10;99.90;;;;;;10356710;28;20221;-74
2021/12/02 14:16:04;;;;;;;2.33;2.00;;;6.00;99.90;;;;;;10357254;28;20229;-73
2021/12/02 14:21:10;;;;;;;1.80;1.63;;;5.80;99.90;;;;;;10353237;28;20225;-73
2021/12/02 14:26:19;;;;;;;3.80;1.37;;;5.60;99.90;;;;;;10342997;28;20338;-70
2021/12/02 14:31:36;;;;;;;1.20;1.00;;;5.40;99.90;;;;;;10353212;28;20244;-73
2021/12/02 14:36:42;;;;;;;2.43;1.40;;;5.20;99.90;;;;;;10347998;28;20248;-72
2021/12/02 14:41:45;;;;;;;2.13;1.40;;;5.10;99.90;;;;;;10355202;28;20374;-72
2021/12/02 14:46:50;;;;;;;2.70;1.20;;;5.00;99.90;;;;;;10355992;28;20225;-74
2021/12/02 14:51:56;;;;;;;3.13;1.57;;;4.90;99.90;;;;;;10350024;28;20334;-72
2021/12/02 14:56:58;;;;;;;2.73;2.03;;;4.70;99.90;;;;;;10384664;28;20267;-72
2021/12/02 15:02:19;;;;;;;2.93;1.30;;;4.60;99.90;;;;;;10349509;28;20292;-73
2021/12/02 15:07:19;;;;;;;1.63;1.50;;;4.50;99.90;;;;;;10375378;28;20683;-72
2021/12/02 15:12:22;;;;;;;2.87;2.00;;;4.50;99.90;;;;;;10372097;28;20260;-72
2021/12/02 15:17:46;;;;;;;5.10;1.77;;;4.40;99.90;;;;;;10370091;28;20634;-73
2021/12/02 15:23:16;;;;;;;1.80;1.43;;;4.50;99.90;;;;;;10371563;28;20218;-74
2021/12/02 15:28:28;;;;;;;3.97;1.60;;;4.50;99.90;;;;;;10355440;28;20252;-73
2021/12/02 15:33:32;;;;;;;2.87;1.40;;;4.50;99.90;;;;;;10359665;28;20213;-73
2021/12/02 15:38:35;;;;;;;4.93;1.73;;;4.40;99.90;;;;;;10357505;28;20272;-73
2021/12/02 15:43:57;;;;;;;2.13;1.47;;;4.40;99.90;;;;;;10366352;28;20609;-72
2021/12/02 15:49:00;;;;;;;5.83;2.80;;;4.30;99.90;;;;;;10363220;28;20248;-72
2021/12/02 15:54:03;;;;;;;4.63;3.30;;;4.20;99.90;;;;;;10364321;28;20245;-73
2021/12/02 15:59:04;;;;;;;2.63;2.00;;;4.20;99.90;;;;;;10362270;28;20220;-73
2021/12/02 16:04:10;;;;;;;2.43;1.50;;;4.20;99.90;;;;;;10354363;28;20224;-71
2021/12/02 16:14:11;;;;;;;2.53;2.33;;;4.40;99.90;;;;;;10364828;28;20707;-76
2021/12/02 16:19:12;;;;;;;2.57;1.80;;;4.50;99.90;;;;;;10353121;28;20638;-73
2021/12/02 16:24:13;;;;;;;5.40;2.10;;;4.60;99.90;;;;;;10361079;28;20890;-71
2021/12/02 16:29:13;;;;;;;3.07;1.90;;;4.60;99.90;;;;;;10348919;28;20233;-73
2021/12/02 16:34:14;;;;;;;4.07;2.20;;;4.60;99.90;;;;;;10367965;28;20213;-72
2021/12/02 16:39:22;;;;;;;2.47;1.60;;;4.70;99.90;;;;;;10366687;28;20329;-72
2021/12/02 16:44:23;;;;;;;3.97;2.03;;;4.60;99.90;;;;;;10345259;28;20230;-72
2021/12/02 16:49:25;;;;;;;2.53;1.73;;;4.60;99.90;;;;;;10351346;28;20221;-71
2021/12/02 16:54:26;;;;;;;6.27;1.77;;;4.70;99.90;;;;;;10347964;28;20214;-72
2021/12/02 16:59:27;;;;;;;2.77;1.43;;;4.80;99.90;;;;;;10348715;28;20222;-72
2021/12/02 17:04:28;;;;;;;2.87;1.57;;;4.70;99.90;;;;;;10352981;28;20221;-73
2021/12/02 17:09:29;;;;;;;2.90;1.60;;;4.70;99.90;;;;;;10363828;28;20232;-72
2021/12/02 17:14:29;;;;;;;3.47;1.70;;;4.60;99.90;;;;;;10359176;28;20379;-72
2021/12/02 17:19:31;;;;;;;5.07;2.07;;;4.60;99.90;;;;;;10362872;28;20231;-73
2021/12/02 17:24:32;;;;;;;2.50;1.20;;;4.60;99.90;;;;;;10363024;28;20747;-73
2021/12/02 17:29:33;;;;;;;2.83;1.47;;;4.60;99.90;;;;;;10362718;28;20225;-73
2021/12/02 17:34:33;;;;;;;4.00;1.60;;;4.60;99.90;;;;;;10371901;28;20221;-76
2021/12/02 17:39:39;;;;;;;3.07;1.17;;;4.50;99.90;;;;;;10354172;28;20221;-74
2021/12/02 17:44:43;;;;;;;1.87;1.60;;;4.40;99.90;;;;;;10347537;28;20280;-73
2021/12/02 17:49:44;;;;;;;3.77;1.60;;;4.40;99.90;;;;;;10357187;28;20223;-71
2021/12/02 17:54:45;;;;;;;2.63;1.57;;;4.40;99.90;;;;;;10344260;28;20211;-70
2021/12/02 17:59:46;;;;;;;4.33;1.40;;;4.30;99.90;;;;;;10359809;28;20651;-71
2021/12/02 18:04:49;;;;;;;4.00;1.63;;;4.20;99.90;;;;;;10348577;28;20225;-72
2021/12/02 18:09:50;;;;;;;4.97;1.83;;;4.20;99.90;;;;;;10359918;28;20232;-72
2021/12/02 18:14:50;;;;;;;6.40;3.57;;;4.10;99.90;;;;;;10352487;28;20236;-71
2021/12/02 18:19:51;;;;;;;11.13;6.50;;;4.20;99.90;;;;;;10384247;28;20282;-71
2021/12/02 18:24:55;;;;;;;11.47;5.93;;;4.20;99.90;;;;;;10365776;28;20225;-72
2021/12/02 18:29:55;;;;;;;8.30;5.80;;;4.20;99.90;;;;;;10357987;28;20217;-72
2021/12/02 18:34:56;;;;;;;7.37;3.50;;;4.30;99.90;;;;;;10370822;28;20221;-71
2021/12/02 18:39:57;;;;;;;7.37;3.40;;;4.40;99.90;;;;;;10348458;28;20597;-71
2021/12/02 18:44:58;;;;;;;6.57;2.43;;;4.40;99.90;;;;;;10361841;28;20897;-72
2021/12/02 18:49:59;;;;;;;3.27;2.40;;;4.40;99.90;;;;;;10363480;28;20220;-71
2021/12/02 18:55:00;;;;;;;4.27;3.10;;;4.40;99.90;;;;;;10369173;28;20217;-71
2021/12/02 19:00:09;;;;;;;6.80;2.80;;;4.40;99.90;;;;;;10368607;28;20312;-72
2021/12/02 19:05:17;;;;;;;4.63;3.00;;;4.40;99.90;;;;;;10355496;28;20271;-72
2021/12/02 19:26:20;;;;;;;10.97;5.60;;;4.50;99.90;;;;;;10356526;28;20218;-73
2021/12/02 19:31:21;;;;;;;5.73;4.00;;;4.60;99.90;;;;;;10354808;28;20260;-72
2021/12/02 19:36:22;;;;;;;5.17;3.50;;;4.60;99.90;;;;;;10362063;28;20221;-73
2021/12/02 19:41:24;;;;;;;6.87;4.17;;;4.50;99.90;;;;;;10348544;28;20229;-74
2021/12/02 19:46:24;;;;;;;9.13;4.17;;;4.50;99.90;;;;;;10381320;28;20332;-72
2021/12/02 19:51:28;;;;;;;7.60;3.77;;;4.40;99.90;;;;;;10352222;28;20743;-73
2021/12/02 19:56:30;;;;;;;8.00;5.30;;;4.40;99.90;;;;;;10357552;28;20225;-73
2021/12/02 20:01:30;;;;;;;5.90;4.50;;;4.50;99.90;;;;;;10362607;28;20241;-72
2021/12/02 20:06:31;;;;;;;9.67;5.17;;;4.50;99.90;;;;;;10362223;28;20776;-73
2021/12/02 20:11:32;;;;;;;8.93;5.87;;;4.60;99.90;;;;;;10350343;28;20260;-73
2021/12/02 20:16:41;;;;;;;8.93;4.37;;;4.60;99.90;;;;;;10359769;28;20320;-73
2021/12/02 20:21:41;;;;;;;10.67;8.17;;;4.50;99.90;;;;;;10357761;28;20206;-73
2021/12/02 20:26:42;;;;;;;11.50;7.20;;;4.40;99.90;;;;;;10359584;28;20229;-73
2021/12/02 20:31:43;;;;;;;6.73;5.47;;;4.30;99.90;;;;;;10350233;28;20237;-74
2021/12/02 20:36:45;;;;;;;8.60;5.93;;;4.30;99.90;;;;;;10369481;28;20285;-73
2021/12/02 20:41:49;;;;;;;8.80;6.60;;;4.30;99.90;;;;;;10358102;28;20267;-73
2021/12/02 20:46:54;;;;;;;8.07;6.33;;;4.40;99.90;;;;;;10377477;28;20272;-74
2021/12/02 20:51:55;;;;;;;8.57;6.33;;;4.50;99.90;;;;;;10361168;28;20233;-74
2021/12/02 20:56:56;;;;;;;8.00;7.10;;;4.50;99.90;;;;;;10369582;28;20255;-74
2021/12/02 21:01:57;;;;;;;6.80;5.60;;;4.50;99.90;;;;;;10355693;28;20248;-73
2021/12/02 21:06:57;;;;;;;6.80;4.90;;;4.40;99.90;;;;;;10356014;28;20240;-73
2021/12/02 21:11:59;;;;;;;6.87;4.93;;;4.30;99.90;;;;;;10363300;28;20232;-73
2021/12/02 21:17:00;;;;;;;6.77;5.17;;;4.20;99.90;;;;;;10354115;28;20272;-73
2021/12/02 21:22:03;;;;;;;6.00;5.40;;;4.20;99.90;;;;;;10363837;28;20287;-73
2021/12/02 21:27:05;;;;;;;9.13;6.60;;;4.20;99.90;;;;;;10339998;28;20275;-74
2021/12/02 21:32:07;;;;;;;6.93;5.13;;;4.20;99.90;;;;;;10365241;28;20799;-72
2021/12/02 21:37:16;;;;;;;6.20;4.70;;;4.10;99.90;;;;;;10346457;28;20775;-73
2021/12/02 21:42:20;;;;;;;6.47;4.80;;;4.00;99.90;;;;;;10367662;28;20217;-74
2021/12/02 21:47:22;;;;;;;6.03;4.63;;;3.90;99.90;;;;;;10362856;28;20276;-75
2021/12/02 21:52:22;;;;;;;5.83;5.00;;;3.70;99.90;;;;;;10352403;28;20324;-74
2021/12/02 21:57:26;;;;;;;8.20;5.40;;;3.50;99.90;;;;;;10348157;28;20395;-73
2021/12/02 22:02:29;;;;;;;6.67;5.47;;;3.40;99.90;;;;;;10361202;28;20284;-75
2021/12/02 22:07:31;;;;;;;5.73;5.10;;;3.50;99.90;;;;;;10358735;28;20296;-73
2021/12/02 22:12:31;;;;;;;6.73;5.30;;;3.50;99.90;;;;;;10357263;28;20237;-73
2021/12/02 22:17:34;;;;;;;7.97;5.27;;;3.70;99.90;;;;;;10348554;28;20263;-72
2021/12/02 22:22:35;;;;;;;6.90;5.10;;;3.70;99.90;;;;;;10356991;28;20226;-73
2021/12/02 22:27:37;;;;;;;4.57;4.17;;;3.80;99.90;;;;;;10357810;28;20257;-73
2021/12/02 22:32:44;;;;;;;7.37;5.50;;;3.80;99.90;;;;;;10351461;28;20288;-73
2021/12/02 22:37:49;;;;;;;7.33;5.20;;;4.00;99.90;;;;;;10355906;28;20956;-72
2021/12/02 22:42:58;;;;;;;7.43;5.40;;;3.90;99.90;;;;;;10355826;28;20233;-74
2021/12/02 22:47:58;;;;;;;6.47;5.80;;;4.00;99.90;;;;;;10351184;28;20222;-73
2021/12/02 22:53:08;;;;;;;6.63;5.73;;;4.00;99.90;;;;;;10359774;28;20236;-73
2021/12/02 22:58:10;;;;;;;7.47;5.57;;;4.00;99.90;;;;;;10333548;28;20226;-72
2021/12/02 23:03:15;;;;;;;8.03;6.60;;;4.00;99.90;;;;;;10340271;28;20727;-73
2021/12/02 23:08:17;;;;;;;6.60;6.00;;;4.00;99.90;;;;;;10372460;28;20229;-73
2021/12/02 23:13:18;;;;;;;7.73;6.93;;;4.00;99.90;;;;;;10356996;28;20272;-72
2021/12/02 23:18:19;;;;;;;9.03;5.60;;;4.10;99.90;;;;;;10363411;28;20275;-72
2021/12/02 23:23:20;;;;;;;7.87;6.10;;;4.10;99.90;;;;;;10358113;28;20236;-73
2021/12/02 23:28:26;;;;;;;8.10;6.00;;;4.00;99.90;;;;;;10361167;28;20233;-73
2021/12/02 23:33:35;;;;;;;5.90;5.27;;;4.00;99.90;;;;;;10362443;28;20297;-72
2021/12/02 23:38:38;;;;;;;5.83;5.23;;;4.00;99.90;;;;;;10364446;28;20907;-73
2021/12/02 23:43:41;;;;;;;5.67;5.10;;;3.80;99.90;;;;;;10363235;28;20221;-72
2021/12/02 23:48:43;;;;;;;6.60;5.70;;;3.70;99.90;;;;;;10362997;28;20221;-73
2021/12/02 23:53:45;;;;;;;6.30;5.33;;;3.70;99.90;;;;;;10349474;28;20261;-74
2021/12/02 23:58:47;;;;;;;8.07;6.20;;;3.70;99.90;;;;;;10358569;28;20222;-72
